Time;durP1;ratioP1;P1;durP2;ratioP2;P2;SDS_P1;SDS_P2;PMS_P1;PMS_P2;Temp;Humidity;BMP_temperature;BMP_pressure;BME280_temperature;BME280_humidity;BME280_pressure;Samples;Min_cycle;Max_cycle;Signal;HPM_P1;HPM_P2
2022/10/15 00:02:05;;;;;;;3.78;1.95;;;;;;;17.38;98.50;99927.75;5023318;28;20037;-71
2022/10/15 00:04:31;;;;;;;3.03;1.67;;;;;;;17.41;98.55;99928.88;5018301;28;20112;-70
2022/10/15 00:06:56;;;;;;;2.92;1.73;;;;;;;17.45;98.71;99933.06;5026118;28;20109;-71
2022/10/15 00:09:22;;;;;;;2.42;1.63;;;;;;;17.45;98.55;99927.63;5004558;28;20030;-71
2022/10/15 00:11:47;;;;;;;8.23;2.53;;;;;;;17.52;98.06;99922.06;5030502;28;20039;-71
2022/10/15 00:14:13;;;;;;;3.97;2.05;;;;;;;17.58;98.19;99927.78;5022401;28;20405;-71
2022/10/15 00:16:38;;;;;;;3.67;1.75;;;;;;;17.51;98.25;99925.97;5023738;28;20080;-71
2022/10/15 00:19:04;;;;;;;4.95;2.03;;;;;;;17.52;97.78;99926.72;5024824;28;20029;-70
2022/10/15 00:21:29;;;;;;;3.58;2.05;;;;;;;17.46;99.13;99915.53;5030449;28;20037;-70
2022/10/15 00:23:55;;;;;;;4.13;2.00;;;;;;;17.48;98.02;99921.34;5023606;28;20414;-70
2022/10/15 00:26:24;;;;;;;4.10;2.22;;;;;;;17.54;98.31;99922.41;5025511;28;20034;-71
2022/10/15 00:28:51;;;;;;;4.63;2.38;;;;;;;17.58;98.18;99920.38;5011852;28;20030;-71
2022/10/15 00:31:23;;;;;;;4.15;2.30;;;;;;;17.55;98.51;99926.69;5027808;28;20029;-71
2022/10/15 00:33:50;;;;;;;4.20;2.30;;;;;;;17.49;99.40;99914.72;5029548;28;20047;-71
2022/10/15 00:36:19;;;;;;;4.93;2.30;;;;;;;17.53;99.52;99923.59;5026643;28;20056;-70
2022/10/15 00:38:45;;;;;;;8.13;3.75;;;;;;;17.49;99.69;99922.13;5024266;28;20115;-71
2022/10/15 00:41:18;;;;;;;4.35;2.45;;;;;;;17.48;99.66;99923.31;5023989;28;20064;-71
2022/10/15 00:43:46;;;;;;;5.72;2.05;;;;;;;17.54;99.81;99921.63;5021109;28;20421;-71
2022/10/15 00:46:16;;;;;;;3.75;2.03;;;;;;;17.54;99.51;99924.34;5006770;28;20029;-70
2022/10/15 00:48:45;;;;;;;5.38;2.17;;;;;;;17.44;100.00;99917.91;5026739;28;20408;-70
2022/10/15 00:51:10;;;;;;;5.35;2.50;;;;;;;17.38;100.00;99916.84;5026932;28;20040;-70
2022/10/15 00:53:36;;;;;;;6.80;2.70;;;;;;;17.48;100.00;99915.13;5026843;28;20033;-70
2022/10/15 00:56:02;;;;;;;4.90;2.35;;;;;;;17.42;100.00;99916.81;5021882;28;20034;-70
2022/10/15 00:58:31;;;;;;;4.82;2.70;;;;;;;17.45;100.00;99915.94;5025293;28;20025;-70
2022/10/15 01:00:56;;;;;;;7.05;2.75;;;;;;;17.40;100.00;99917.19;5022436;28;20037;-70
2022/10/15 01:03:22;;;;;;;5.65;3.25;;;;;;;17.33;100.00;99909.19;5015266;28;20444;-70
2022/10/15 01:05:51;;;;;;;5.57;3.17;;;;;;;17.31;100.00;99911.56;5020478;28;20079;-70
2022/10/15 01:08:17;;;;;;;5.47;2.72;;;;;;;17.33;100.00;99911.91;5027591;28;20029;-70
2022/10/15 01:10:49;;;;;;;6.00;2.70;;;;;;;17.29;100.00;99903.03;5025081;28;20140;-70
2022/10/15 01:13:27;;;;;;;6.60;2.80;;;;;;;17.34;100.00;99901.78;5026325;28;20037;-70
2022/10/15 01:16:01;;;;;;;6.30;2.83;;;;;;;17.25;100.00;99902.34;5022455;28;20042;-70
2022/10/15 01:18:38;;;;;;;5.38;2.55;;;;;;;17.33;100.00;99900.25;5025638;28;20448;-70
2022/10/15 01:21:12;;;;;;;7.82;3.08;;;;;;;17.38;100.00;99905.22;5023316;28;20068;-70
2022/10/15 01:23:57;;;;;;;5.55;3.10;;;;;;;17.36;100.00;99904.88;5018152;28;20417;-70
2022/10/15 01:26:57;;;;;;;5.18;2.70;;;;;;;17.41;100.00;99894.25;5020852;28;20105;-70
2022/10/15 01:29:59;;;;;;;6.57;2.70;;;;;;;17.43;100.00;99897.31;5012232;28;20041;-70
2022/10/15 01:32:37;;;;;;;6.75;3.28;;;;;;;17.44;100.00;99900.81;5021249;28;20041;-70
2022/10/15 01:35:21;;;;;;;6.45;3.10;;;;;;;17.38;100.00;99907.94;5010867;28;20033;-70
2022/10/15 01:37:48;;;;;;;7.90;3.42;;;;;;;17.38;100.00;99903.25;5026306;28;20029;-70
2022/10/15 01:40:23;;;;;;;8.07;3.70;;;;;;;17.37;100.00;99898.22;5015142;28;20397;-70
2022/10/15 01:43:02;;;;;;;11.02;3.20;;;;;;;17.31;100.00;99891.72;5029016;28;20040;-70
2022/10/15 01:45:48;;;;;;;7.03;3.50;;;;;;;17.41;100.00;99898.91;5027193;28;20033;-70
2022/10/15 01:48:38;;;;;;;5.70;2.78;;;;;;;17.44;100.00;99898.09;5026210;28;20045;-70
2022/10/15 01:51:06;;;;;;;8.55;3.17;;;;;;;17.30;100.00;99893.69;5025397;28;20048;-70
2022/10/15 01:53:35;;;;;;;10.40;3.70;;;;;;;17.45;100.00;99896.91;5017534;28;20547;-70
2022/10/15 01:56:10;;;;;;;8.38;3.72;;;;;;;17.36;100.00;99897.47;5030600;28;20032;-70
2022/10/15 01:58:40;;;;;;;7.28;3.28;;;;;;;17.43;100.00;99891.09;5021242;28;20255;-70
2022/10/15 02:01:05;;;;;;;8.98;3.92;;;;;;;17.43;100.00;99891.88;5033825;28;20060;-70
2022/10/15 02:03:44;;;;;;;12.35;3.33;;;;;;;17.33;100.00;99894.78;5022576;28;20029;-70
2022/10/15 02:06:15;;;;;;;6.97;3.20;;;;;;;17.31;100.00;99895.22;5033252;28;20403;-70
2022/10/15 02:08:52;;;;;;;9.82;4.18;;;;;;;17.32;100.00;99896.00;5021064;28;20397;-70
2022/10/15 02:11:18;;;;;;;9.75;3.47;;;;;;;17.25;100.00;99894.16;5016470;28;20038;-70
2022/10/15 02:13:58;;;;;;;9.65;4.28;;;;;;;17.34;100.00;99899.06;5011602;28;20536;-70
2022/10/15 02:16:45;;;;;;;9.90;4.05;;;;;;;17.37;100.00;99893.56;5025322;28;20033;-70
2022/10/15 02:19:21;;;;;;;8.43;3.45;;;;;;;17.29;100.00;99900.31;5020301;28;20402;-70
2022/10/15 02:21:56;;;;;;;9.50;4.15;;;;;;;17.19;100.00;99897.81;5021271;28;20125;-70
2022/10/15 02:24:31;;;;;;;8.60;4.07;;;;;;;17.22;100.00;99897.75;5027074;28;20617;-70
2022/10/15 02:27:00;;;;;;;10.48;3.95;;;;;;;17.15;100.00;99895.91;5023387;28;20120;-70
2022/10/15 02:29:31;;;;;;;11.50;4.72;;;;;;;17.19;100.00;99893.13;5019292;28;20156;-70
2022/10/15 02:31:59;;;;;;;11.85;4.70;;;;;;;17.27;100.00;99888.31;5005282;28;20025;-70
2022/10/15 02:34:28;;;;;;;14.15;5.13;;;;;;;17.21;100.00;99885.31;5027279;28;20084;-70
2022/10/15 02:36:59;;;;;;;14.45;5.82;;;;;;;17.12;100.00;99882.38;5019252;28;20125;-70
2022/10/15 02:39:25;;;;;;;11.50;4.80;;;;;;;17.09;100.00;99880.50;5024030;28;20037;-70
2022/10/15 02:41:52;;;;;;;11.70;4.43;;;;;;;17.02;100.00;99873.22;5025312;28;20124;-70
2022/10/15 02:44:18;;;;;;;11.40;4.70;;;;;;;17.02;100.00;99873.22;5026146;28;20029;-70
2022/10/15 02:46:44;;;;;;;10.90;4.75;;;;;;;16.92;100.00;99870.69;5022520;28;20044;-70
2022/10/15 02:49:11;;;;;;;12.35;4.82;;;;;;;16.91;100.00;99872.66;5024183;28;20401;-70
2022/10/15 02:51:36;;;;;;;12.40;5.15;;;;;;;16.89;100.00;99877.75;5023304;28;20112;-70
2022/10/15 02:54:03;;;;;;;11.13;4.40;;;;;;;16.92;100.00;99876.91;5022990;28;20517;-70
2022/10/15 02:56:29;;;;;;;13.02;4.43;;;;;;;16.81;100.00;99884.50;5029257;28;20033;-70
2022/10/15 02:58:54;;;;;;;14.70;5.50;;;;;;;16.78;100.00;99887.28;5024321;28;20091;-69
2022/10/15 03:01:20;;;;;;;11.65;4.78;;;;;;;16.77;100.00;99881.06;5023579;28;20747;-70
2022/10/15 03:03:47;;;;;;;13.25;5.28;;;;;;;16.77;100.00;99883.78;5030001;28;20094;-70
2022/10/15 03:06:13;;;;;;;13.30;5.45;;;;;;;16.70;100.00;99870.31;5026067;28;20030;-70
2022/10/15 03:08:41;;;;;;;14.50;5.68;;;;;;;16.70;100.00;99885.88;5032859;28;20064;-69
2022/10/15 03:11:07;;;;;;;15.93;5.70;;;;;;;16.76;100.00;99890.41;5025303;28;20402;-70
2022/10/15 03:13:38;;;;;;;12.55;5.15;;;;;;;16.61;100.00;99885.59;5025241;28;20033;-70
2022/10/15 03:16:05;;;;;;;18.33;6.00;;;;;;;16.66;100.00;99890.59;5027861;28;20032;-70
2022/10/15 03:18:32;;;;;;;14.98;5.45;;;;;;;16.61;100.00;99897.25;5026590;28;20425;-70
2022/10/15 03:20:58;;;;;;;11.73;4.63;;;;;;;16.59;100.00;99894.19;5024210;28;20585;-70
2022/10/15 03:23:25;;;;;;;12.07;5.82;;;;;;;16.59;100.00;99893.44;5031491;28;20052;-70
2022/10/15 03:26:00;;;;;;;12.05;4.75;;;;;;;16.66;100.00;99888.66;5016224;28;20037;-70
2022/10/15 03:28:26;;;;;;;12.23;4.95;;;;;;;16.69;100.00;99892.47;5012970;28;20037;-70
2022/10/15 03:30:51;;;;;;;11.32;4.80;;;;;;;16.71;100.00;99890.09;5028097;28;20068;-70
2022/10/15 03:33:18;;;;;;;19.42;6.47;;;;;;;16.68;100.00;99896.38;5024788;28;20041;-70
2022/10/15 03:35:44;;;;;;;12.20;5.03;;;;;;;16.65;100.00;99900.69;5025159;28;20029;-70
2022/10/15 03:38:10;;;;;;;14.35;5.55;;;;;;;16.71;100.00;99892.81;5031346;28;20025;-70
2022/10/15 03:40:37;;;;;;;14.25;5.22;;;;;;;16.71;100.00;99895.53;5031671;28;20382;-70
2022/10/15 03:43:18;;;;;;;15.13;5.63;;;;;;;16.70;100.00;99902.19;5026589;28;20032;-70
2022/10/15 03:45:44;;;;;;;15.85;5.88;;;;;;;16.63;100.00;99899.56;5025338;28;20037;-70
2022/10/15 03:48:17;;;;;;;17.50;6.63;;;;;;;16.54;100.00;99899.31;5016984;28;20064;-70
2022/10/15 03:50:42;;;;;;;13.23;5.10;;;;;;;16.52;100.00;99897.03;5029427;28;20068;-70
2022/10/15 03:53:08;;;;;;;17.00;5.13;;;;;;;16.52;100.00;99896.25;5025164;28;20124;-70
2022/10/15 03:55:34;;;;;;;11.85;4.75;;;;;;;16.63;100.00;99905.00;5029694;28;20032;-70
2022/10/15 03:58:00;;;;;;;14.05;4.85;;;;;;;16.61;100.00;99896.47;5031059;28;20033;-70
2022/10/15 04:00:26;;;;;;;13.95;5.32;;;;;;;16.53;100.00;99901.28;5008915;28;20087;-70
2022/10/15 04:02:56;;;;;;;13.68;5.10;;;;;;;16.46;100.00;99900.59;5028774;28;20026;-70
2022/10/15 04:05:25;;;;;;;17.02;5.25;;;;;;;16.31;100.00;99902.00;5027792;28;20037;-70
2022/10/15 04:07:56;;;;;;;13.57;4.53;;;;;;;16.25;100.00;99898.97;5029049;23;20448;-66
2022/10/15 04:10:23;;;;;;;13.10;4.80;;;;;;;16.26;100.00;99905.94;5010024;28;20090;-66
2022/10/15 04:12:49;;;;;;;15.75;5.68;;;;;;;16.15;100.00;99906.09;5009556;28;20057;-66
2022/10/15 04:15:16;;;;;;;12.82;4.70;;;;;;;15.96;99.67;99903.28;5008442;28;20038;-67
2022/10/15 04:17:53;;;;;;;13.63;5.63;;;;;;;16.00;100.00;99910.22;5001982;28;20034;-66
2022/10/15 04:20:19;;;;;;;12.77;5.25;;;;;;;16.09;100.00;99905.03;4991539;28;20034;-67
2022/10/15 04:22:45;;;;;;;10.20;4.53;;;;;;;16.01;99.89;99898.16;4992217;28;20045;-67
2022/10/15 04:25:12;;;;;;;13.40;5.50;;;;;;;15.89;99.64;99904.13;4997372;28;20026;-66
2022/10/15 04:27:38;;;;;;;11.63;5.25;;;;;;;15.87;99.23;99903.78;4997415;28;20115;-67
2022/10/15 04:30:08;;;;;;;14.05;4.75;;;;;;;15.82;98.82;99903.47;5002125;28;20034;-66
2022/10/15 04:32:36;;;;;;;13.38;5.60;;;;;;;15.74;98.96;99905.50;5000025;28;20026;-67
2022/10/15 04:35:01;;;;;;;9.57;4.28;;;;;;;15.72;98.55;99913.28;4995563;28;20486;-67
2022/10/15 04:37:46;;;;;;;13.88;5.22;;;;;;;15.73;98.28;99901.25;5000654;28;20038;-66
2022/10/15 04:40:12;;;;;;;9.45;4.22;;;;;;;15.65;98.52;99905.25;4996718;28;20193;-67
2022/10/15 04:42:38;;;;;;;11.70;5.13;;;;;;;15.63;98.90;99910.31;5012254;28;20033;-66
2022/10/15 04:45:05;;;;;;;9.15;4.65;;;;;;;15.71;98.67;99919.91;4990569;28;20034;-66
2022/10/15 04:47:31;;;;;;;10.30;4.38;;;;;;;15.65;99.36;99912.63;4992259;28;20502;-67
2022/10/15 04:50:06;;;;;;;13.25;4.60;;;;;;;15.73;99.16;99917.56;4993396;28;20033;-66
2022/10/15 04:52:51;;;;;;;14.23;5.20;;;;;;;15.80;99.32;99922.88;4996052;28;20044;-67
2022/10/15 04:55:17;;;;;;;10.07;4.32;;;;;;;15.88;99.05;99923.56;5006249;28;20061;-67
2022/10/15 04:57:43;;;;;;;10.70;4.75;;;;;;;15.94;99.21;99925.44;4999939;28;20049;-66
2022/10/15 05:00:09;;;;;;;8.43;3.90;;;;;;;15.87;99.28;99920.06;4997056;28;20038;-68
2022/10/15 05:02:53;;;;;;;10.20;4.82;;;;;;;15.86;99.48;99921.25;4991235;28;20040;-67
2022/10/15 05:05:24;;;;;;;9.30;4.65;;;;;;;15.89;99.33;99917.72;4989366;28;20030;-67
2022/10/15 05:07:58;;;;;;;9.90;4.22;;;;;;;15.93;99.56;99918.44;5002775;28;20042;-66
2022/10/15 05:10:24;;;;;;;11.43;5.15;;;;;;;15.97;99.78;99924.59;4997482;28;20030;-66
2022/10/15 05:12:50;;;;;;;11.82;4.57;;;;;;;15.96;99.53;99928.50;5000173;28;20068;-66
2022/10/15 05:15:20;;;;;;;12.90;4.53;;;;;;;15.96;99.15;99931.22;4988789;28;20026;-66
2022/10/15 05:17:46;;;;;;;15.10;5.70;;;;;;;15.92;99.48;99932.44;4995702;28;20405;-66
2022/10/15 05:20:11;;;;;;;15.98;6.15;;;;;;;15.82;100.00;99942.25;5002052;28;20560;-66
2022/10/15 05:22:37;;;;;;;10.90;5.10;;;;;;;15.86;100.00;99937.56;5002263;28;20042;-66
2022/10/15 05:25:03;;;;;;;13.00;5.15;;;;;;;15.88;100.00;99937.13;4988552;28;20490;-66
2022/10/15 05:27:34;;;;;;;12.55;5.43;;;;;;;15.94;99.72;99935.50;4986598;28;20634;-66
2022/10/15 05:30:03;;;;;;;11.35;4.80;;;;;;;15.94;100.00;99941.72;4985497;28;20113;-67
2022/10/15 05:32:35;;;;;;;12.70;4.47;;;;;;;15.93;100.00;99944.84;4989016;28;20048;-66
2022/10/15 05:35:01;;;;;;;10.82;4.70;;;;;;;15.92;100.00;99944.06;4986642;28;20022;-66
2022/10/15 05:37:40;;;;;;;11.63;5.03;;;;;;;15.90;100.00;99946.44;4987933;28;20034;-67
2022/10/15 05:40:06;;;;;;;11.80;5.07;;;;;;;15.93;100.00;99951.03;4989562;28;20570;-66
2022/10/15 05:42:32;;;;;;;11.32;5.15;;;;;;;15.94;100.00;99954.53;4987215;28;20387;-66
2022/10/15 05:44:57;;;;;;;11.88;4.82;;;;;;;16.01;100.00;99957.13;4987618;28;20061;-66
2022/10/15 05:47:23;;;;;;;9.30;4.70;;;;;;;15.91;100.00;99953.38;4984227;28;20038;-66
2022/10/15 05:49:54;;;;;;;13.40;5.32;;;;;;;15.92;100.00;99948.72;4991855;28;20029;-66
2022/10/15 05:52:26;;;;;;;14.05;5.10;;;;;;;15.90;100.00;99960.00;4989307;28;20553;-66
2022/10/15 05:55:12;;;;;;;13.50;5.38;;;;;;;15.98;100.00;99961.47;4987248;28;20122;-66
2022/10/15 05:57:37;;;;;;;19.55;5.18;;;;;;;15.93;100.00;99959.19;4989471;28;20553;-66
2022/10/15 06:00:04;;;;;;;12.20;4.93;;;;;;;15.98;100.00;99952.53;4990011;28;20563;-66
2022/10/15 06:02:37;;;;;;;12.40;4.78;;;;;;;15.94;99.89;99966.16;5000885;28;20038;-66
2022/10/15 06:05:03;;;;;;;14.13;5.38;;;;;;;15.99;100.00;99960.28;4999263;28;20044;-66
2022/10/15 06:07:31;;;;;;;13.30;5.07;;;;;;;16.06;99.81;99973.78;4991532;28;20038;-66
2022/10/15 06:10:00;;;;;;;15.32;5.03;;;;;;;16.07;99.99;99961.72;4998040;28;20038;-66
2022/10/15 06:12:27;;;;;;;10.05;4.43;;;;;;;16.07;100.00;99971.81;4993403;28;20145;-66
2022/10/15 06:14:52;;;;;;;19.55;5.10;;;;;;;16.10;99.94;99969.03;4987907;28;20105;-66
2022/10/15 06:17:18;;;;;;;10.40;4.70;;;;;;;15.96;99.37;99966.53;4983829;28;20409;-66
2022/10/15 06:19:48;;;;;;;17.30;5.75;;;;;;;16.03;100.00;99961.00;4987108;28;20045;-66
2022/10/15 06:22:14;;;;;;;14.32;5.15;;;;;;;16.07;99.93;99967.16;4987410;28;20573;-66
2022/10/15 06:24:40;;;;;;;12.00;4.85;;;;;;;16.18;99.99;99967.03;4988634;28;20026;-66
2022/10/15 06:27:08;;;;;;;13.02;5.50;;;;;;;16.17;99.57;99970.91;4999514;28;20034;-66
2022/10/15 06:29:37;;;;;;;17.42;6.10;;;;;;;16.15;99.60;99974.03;4994922;28;20037;-66
2022/10/15 06:32:02;;;;;;;15.75;5.40;;;;;;;16.26;99.03;99979.31;4992349;28;20030;-66
2022/10/15 06:34:30;;;;;;;17.10;5.32;;;;;;;16.17;98.92;99976.34;4994001;28;20084;-66
2022/10/15 06:36:56;;;;;;;14.77;5.75;;;;;;;16.09;99.30;99985.75;5000951;28;20081;-66
2022/10/15 06:39:21;;;;;;;16.40;5.72;;;;;;;16.18;99.10;99986.03;4996976;28;20038;-66
2022/10/15 06:41:46;;;;;;;16.42;5.40;;;;;;;16.17;99.11;99982.53;4994311;28;21497;-66
2022/10/15 06:44:12;;;;;;;15.35;4.97;;;;;;;16.20;98.82;99998.03;5000285;28;20121;-66
2022/10/15 06:46:37;;;;;;;16.90;5.40;;;;;;;16.10;98.73;99995.47;4999252;28;20026;-66
2022/10/15 06:49:03;;;;;;;19.85;5.43;;;;;;;16.02;98.93;100008.34;5000585;28;20085;-66
2022/10/15 06:51:28;;;;;;;13.30;5.10;;;;;;;15.98;98.59;99996.78;4996807;28;20549;-66
2022/10/15 06:53:54;;;;;;;17.77;5.68;;;;;;;15.94;99.04;100006.13;4995692;28;20092;-66
2022/10/15 06:56:19;;;;;;;17.42;5.63;;;;;;;16.02;98.99;99991.28;4997676;28;20027;-66
2022/10/15 06:58:45;;;;;;;15.05;4.93;;;;;;;15.89;98.66;100007.34;4992336;28;20422;-66
2022/10/15 07:01:10;;;;;;;16.23;4.93;;;;;;;15.91;98.85;99994.13;4990604;28;20432;-66
2022/10/15 07:03:37;;;;;;;14.57;5.10;;;;;;;16.03;98.70;99988.16;5007209;28;20045;-65
2022/10/15 07:06:06;;;;;;;15.40;5.30;;;;;;;15.77;98.40;99988.09;5001927;28;20030;-66
2022/10/15 07:08:32;;;;;;;13.57;4.85;;;;;;;15.81;98.66;100000.47;5001327;28;20512;-66
2022/10/15 07:11:01;;;;;;;18.95;5.78;;;;;;;15.86;98.21;100001.94;4997590;28;20037;-66
2022/10/15 07:13:30;;;;;;;18.77;5.95;;;;;;;15.83;98.37;100005.50;4998211;28;20026;-66
2022/10/15 07:15:56;;;;;;;18.88;5.80;;;;;;;15.90;98.49;100008.09;4991100;28;20590;-65
2022/10/15 07:18:22;;;;;;;16.83;5.25;;;;;;;16.05;98.59;100006.75;4992325;28;20128;-66
2022/10/15 07:20:47;;;;;;;13.60;5.07;;;;;;;16.02;97.77;100010.31;4990862;28;20030;-66
2022/10/15 07:23:13;;;;;;;14.88;5.22;;;;;;;16.20;97.57;100008.88;4990403;28;20022;-66
2022/10/15 07:25:38;;;;;;;15.73;5.50;;;;;;;16.20;97.95;100006.16;4993886;28;20484;-66
2022/10/15 07:28:05;;;;;;;13.45;4.57;;;;;;;16.28;96.67;100015.78;4998288;28;20474;-66
2022/10/15 07:30:31;;;;;;;16.00;5.88;;;;;;;16.17;96.50;100020.59;4988060;28;20040;-66
2022/10/15 07:32:58;;;;;;;13.02;5.00;;;;;;;16.24;96.77;100015.03;4991094;28;20495;-66
2022/10/15 07:35:24;;;;;;;15.27;5.53;;;;;;;16.29;96.86;100011.13;4998083;28;20085;-66
2022/10/15 07:37:50;;;;;;;17.35;5.40;;;;;;;16.37;96.64;100017.22;4998884;28;20040;-66
2022/10/15 07:40:19;;;;;;;12.90;4.38;;;;;;;16.53;96.08;100011.97;4990698;28;20462;-66
2022/10/15 07:42:51;;;;;;;18.08;5.28;;;;;;;16.63;95.00;100024.63;5001013;28;20045;-66
2022/10/15 07:45:16;;;;;;;13.07;5.15;;;;;;;16.62;94.58;100017.66;5002959;28;20117;-66
2022/10/15 07:47:42;;;;;;;19.80;5.60;;;;;;;16.58;95.60;100017.72;4992898;28;20113;-66
2022/10/15 07:50:14;;;;;;;14.38;5.32;;;;;;;16.62;95.35;100023.09;4985616;28;20027;-66
2022/10/15 07:52:40;;;;;;;13.88;5.13;;;;;;;16.60;94.33;100026.25;4991256;28;20742;-66
2022/10/15 07:55:06;;;;;;;15.38;5.40;;;;;;;16.29;95.18;100021.97;4990265;28;20058;-66
2022/10/15 07:57:31;;;;;;;12.02;5.03;;;;;;;16.39;94.93;100020.31;5005499;28;20030;-66
2022/10/15 07:59:56;;;;;;;14.63;5.35;;;;;;;16.46;94.89;100025.63;4995249;28;20521;-66
2022/10/15 08:02:22;;;;;;;14.45;5.72;;;;;;;16.53;94.31;100022.88;4991467;28;20042;-66
2022/10/15 08:04:48;;;;;;;11.57;5.28;;;;;;;16.55;94.43;100034.09;4991756;28;20516;-66
2022/10/15 08:07:14;;;;;;;18.38;5.57;;;;;;;16.57;95.16;100027.03;4997767;28;20401;-66
2022/10/15 08:09:39;;;;;;;20.23;5.55;;;;;;;16.66;94.67;100027.31;4991570;28;20558;-66
2022/10/15 08:12:05;;;;;;;15.38;5.18;;;;;;;16.69;94.72;100017.56;4992648;28;20035;-66
2022/10/15 08:14:35;;;;;;;14.27;5.50;;;;;;;16.59;93.68;100021.97;4989076;28;20054;-66
2022/10/15 08:17:02;;;;;;;17.60;5.75;;;;;;;16.45;93.87;100024.09;4984812;28;20406;-66
2022/10/15 08:19:27;;;;;;;19.75;6.13;;;;;;;16.30;94.91;100017.31;4991380;28;20038;-67
2022/10/15 08:21:53;;;;;;;15.00;4.63;;;;;;;16.26;95.22;100022.78;4990146;28;20044;-67
2022/10/15 08:24:18;;;;;;;16.55;6.28;;;;;;;16.34;94.93;100023.50;4987550;28;20042;-66
2022/10/15 08:26:45;;;;;;;13.88;5.95;;;;;;;16.30;95.31;100025.47;4985848;28;20042;-66
2022/10/15 08:29:11;;;;;;;15.70;5.50;;;;;;;16.50;93.98;100026.38;4990305;28;20030;-67
2022/10/15 08:31:38;;;;;;;15.55;5.47;;;;;;;16.51;94.41;100033.38;4990748;28;20038;-66
2022/10/15 08:34:04;;;;;;;14.55;5.85;;;;;;;16.60;94.46;100033.63;4986539;28;20125;-67
2022/10/15 08:36:29;;;;;;;14.30;5.22;;;;;;;16.73;94.67;100029.94;4990837;28;20457;-66
2022/10/15 08:38:55;;;;;;;14.73;5.95;;;;;;;16.62;93.88;100029.31;4989678;28;20026;-66
2022/10/15 08:41:31;;;;;;;11.88;4.85;;;;;;;16.79;93.97;100035.66;4991050;28;20033;-66
2022/10/15 08:43:58;;;;;;;14.43;5.25;;;;;;;17.05;93.64;100043.03;4989451;28;20033;-66
2022/10/15 08:46:41;;;;;;;15.95;5.03;;;;;;;17.15;92.05;100040.13;4991715;28;20042;-66
2022/10/15 08:49:19;;;;;;;11.98;4.50;;;;;;;17.33;92.11;100034.41;4989094;28;20045;-66
2022/10/15 08:51:51;;;;;;;14.25;5.03;;;;;;;17.58;91.57;100042.94;5004319;28;20126;-67
2022/10/15 08:54:18;;;;;;;10.25;4.20;;;;;;;17.67;89.53;100045.13;4998514;28;20108;-66
2022/10/15 08:56:48;;;;;;;14.52;5.63;;;;;;;17.51;88.56;100042.28;5002103;28;20034;-66
2022/10/15 08:59:41;;;;;;;11.88;4.85;;;;;;;17.56;89.41;100036.34;4985787;28;20314;-67
2022/10/15 09:02:25;;;;;;;10.88;4.55;;;;;;;17.79;88.22;100033.59;4989598;28;20071;-67
2022/10/15 09:05:03;;;;;;;11.65;3.83;;;;;;;17.95;87.62;100048.06;4996006;28;20041;-67
2022/10/15 09:07:49;;;;;;;12.10;5.30;;;;;;;17.81;87.13;100048.31;4995366;28;20030;-66
2022/10/15 09:10:33;;;;;;;10.25;3.78;;;;;;;17.76;86.04;100048.06;4987234;28;20038;-67
2022/10/15 09:13:03;;;;;;;8.35;3.42;;;;;;;17.36;87.13;100035.53;4988644;28;20615;-67
2022/10/15 09:15:36;;;;;;;11.43;3.63;;;;;;;17.51;87.86;100045.78;5008686;28;20041;-66
2022/10/15 09:18:02;;;;;;;10.55;4.13;;;;;;;17.54;88.18;100044.16;4990501;28;20045;-66
2022/10/15 09:20:34;;;;;;;10.93;3.60;;;;;;;17.77;87.56;100047.63;4999565;28;20034;-66
2022/10/15 09:23:00;;;;;;;9.57;3.67;;;;;;;17.93;86.51;100045.00;4998946;28;20042;-66
2022/10/15 09:25:33;;;;;;;12.40;4.07;;;;;;;17.97;85.21;100051.13;4992873;28;20398;-66
2022/10/15 09:28:08;;;;;;;9.85;3.65;;;;;;;18.16;84.96;100041.41;4990974;28;20435;-66
2022/10/15 09:30:49;;;;;;;9.18;3.00;;;;;;;18.45;85.15;100034.19;4990447;28;20037;-66
2022/10/15 09:33:21;;;;;;;10.52;3.40;;;;;;;18.71;84.09;100043.38;4992114;28;20044;-66
2022/10/15 09:35:52;;;;;;;11.65;3.50;;;;;;;18.55;82.90;100040.59;4989089;28;20029;-66
2022/10/15 09:38:55;;;;;;;6.95;3.05;;;;;;;18.49;82.46;100043.06;4998340;28;20068;-66
2022/10/15 09:41:36;;;;;;;12.02;3.55;;;;;;;18.62;82.61;100045.91;4990475;28;20025;-66
2022/10/15 09:44:04;;;;;;;9.50;3.67;;;;;;;18.72;81.36;100044.88;5005450;28;20070;-66
2022/10/15 09:46:48;;;;;;;11.13;3.33;;;;;;;19.09;80.35;100044.41;5007779;28;20113;-66
2022/10/15 09:49:25;;;;;;;7.35;3.28;;;;;;;19.06;81.27;100037.09;5008872;28;20049;-66
2022/10/15 09:52:08;;;;;;;9.32;3.53;;;;;;;19.21;79.84;100029.28;5010400;28;20405;-66
2022/10/15 09:55:06;;;;;;;6.30;2.55;;;;;;;19.34;78.86;100033.66;4993002;28;20038;-66
2022/10/15 09:57:35;;;;;;;9.32;2.70;;;;;;;19.38;78.53;100037.06;5007295;28;20042;-66
2022/10/15 10:00:13;;;;;;;8.85;2.97;;;;;;;19.66;77.94;100041.03;4991665;28;20438;-66
2022/10/15 10:02:39;;;;;;;7.47;3.58;;;;;;;19.66;78.28;100041.03;4991685;28;20364;-66
2022/10/15 10:05:27;;;;;;;10.35;3.17;;;;;;;19.46;77.69;100037.66;4990621;28;20432;-66
2022/10/15 10:08:09;;;;;;;6.28;2.78;;;;;;;19.61;78.11;100045.06;4990911;28;20042;-66
2022/10/15 10:10:36;;;;;;;10.15;3.42;;;;;;;19.51;78.64;100054.28;4990402;28;20482;-66
2022/10/15 10:13:08;;;;;;;5.80;2.83;;;;;;;19.60;78.25;100042.75;4991268;28;20035;-66
2022/10/15 10:15:35;;;;;;;;;;;;;;;19.76;78.26;100040.00;5007137;28;20036;-66
2022/10/15 10:18:04;;;;;;;9.30;3.45;;;;;;;19.79;77.01;100033.66;4990837;28;19948;-66
2022/10/15 10:20:30;;;;;;;8.88;2.65;;;;;;;19.89;78.18;100038.06;4990584;28;20070;-66
2022/10/15 10:23:03;;;;;;;7.47;3.17;;;;;;;20.04;77.68;100043.88;4991077;28;20030;-66
2022/10/15 10:25:37;;;;;;;7.65;3.13;;;;;;;20.18;75.64;100032.56;4991247;28;20101;-66
2022/10/15 10:28:10;;;;;;;6.85;2.97;;;;;;;20.07;75.90;100038.34;4991926;28;20463;-66
2022/10/15 10:30:42;;;;;;;6.85;3.20;;;;;;;20.08;75.99;100039.84;5006217;28;20105;-66
2022/10/15 10:33:13;;;;;;;7.40;2.90;;;;;;;19.98;76.13;100029.97;4991697;28;20161;-66
2022/10/15 10:35:49;;;;;;;5.93;2.75;;;;;;;20.20;76.25;100027.44;4989571;28;20379;-66
2022/10/15 10:38:23;;;;;;;5.03;2.42;;;;;;;20.25;75.79;100032.34;4991655;28;20127;-66
2022/10/15 10:40:54;;;;;;;6.70;2.30;;;;;;;20.35;75.10;100023.84;4990940;28;20040;-66
2022/10/15 10:43:27;;;;;;;7.43;2.80;;;;;;;20.30;74.08;100024.41;4991548;28;20034;-66
2022/10/15 10:45:57;;;;;;;4.82;2.17;;;;;;;20.24;73.36;100022.63;4990615;28;20109;-66
2022/10/15 10:48:36;;;;;;;4.38;1.88;;;;;;;20.21;74.29;100026.25;4991018;28;20042;-66
2022/10/15 10:51:06;;;;;;;3.83;1.92;;;;;;;20.40;74.12;100031.50;4973070;28;20043;-66
2022/10/15 10:53:37;;;;;;;3.95;1.80;;;;;;;20.59;74.24;100019.63;4972157;28;20110;-66
2022/10/15 10:56:05;;;;;;;3.97;1.95;;;;;;;20.57;72.33;100019.28;4971090;28;20034;-66
2022/10/15 10:58:33;;;;;;;5.00;2.20;;;;;;;20.36;71.69;100019.91;4977363;28;20033;-66
2022/10/15 11:00:59;;;;;;;3.20;1.73;;;;;;;20.12;73.61;100026.06;5006498;28;20058;-66
2022/10/15 11:03:34;;;;;;;4.05;1.75;;;;;;;20.02;73.96;100032.63;4991521;28;20459;-66
2022/10/15 11:06:22;;;;;;;4.00;1.70;;;;;;;20.12;74.38;100020.59;5004386;28;20117;-66
2022/10/15 11:08:47;;;;;;;5.80;1.90;;;;;;;19.65;75.75;100015.66;4989847;28;20042;-66
2022/10/15 11:11:24;;;;;;;6.78;2.25;;;;;;;19.34;77.02;100017.28;4991324;28;20026;-66
2022/10/15 11:14:23;;;;;;;4.15;1.75;;;;;;;19.73;76.76;100011.56;4991233;28;20038;-66
2022/10/15 11:16:58;;;;;;;2.95;1.85;;;;;;;19.77;76.01;100017.69;4991970;28;20430;-66
2022/10/15 11:19:38;;;;;;;4.63;2.25;;;;;;;19.52;76.75;100014.09;4994156;28;20049;-66
2022/10/15 11:22:21;;;;;;;4.25;1.85;;;;;;;19.73;76.97;100019.75;4994530;28;20038;-66
2022/10/15 11:25:02;;;;;;;4.30;1.77;;;;;;;19.83;75.47;100009.72;4993838;28;20080;-66
2022/10/15 11:28:16;;;;;;;3.20;1.55;;;;;;;20.24;75.07;100001.53;4994085;28;20137;-66
2022/10/15 11:30:51;;;;;;;2.03;1.38;;;;;;;20.58;74.51;99998.13;4992334;28;20133;-66
2022/10/15 11:34:01;;;;;;;3.30;1.30;;;;;;;20.42;72.72;100017.41;4994730;28;20030;-66
2022/10/15 11:36:47;;;;;;;2.78;1.63;;;;;;;20.24;73.52;100015.22;5001767;28;20054;-66
2022/10/15 11:39:13;;;;;;;4.90;1.52;;;;;;;20.18;73.53;100002.47;5009617;28;20034;-66